• Join FlightAware (Why Join?)
  • Login
  • US Flag 
12:58PM EDT


 

Airport Tracker/Info


-or-


 

Live Flight TrackerFlight Track Log ✈ UAL4476 ✈ 23-Apr-2013 ✈ KCLT - KCLE

Flight Track Log - Related Links

Times and Time Zones

All times are in EDT time to prevent confusion due to time zone crossing. See the UAL4476 flight status page for this flight to view local times or setup timezone preferences in your user account.

Time Position Orientation Groundspeed Altitude Reporting Facility
EDT Latitude Longitude Course Direction KTS MPH feet Rate Location/Type
06:32AM 35.2261 -80.9269 49° Northeast 160 184 1,300  Level FAA TRACON SMA TRACON (SMA)
06:33AM 35.2378 -80.9103 49° Northeast 169 194 2,400 2,520 Climbing FAA TRACON SMA TRACON (SMA)
06:33AM 35.2478 -80.8969 47° Northeast 174 200 3,000 1,800 Climbing FAA TRACON SMA TRACON (SMA)
06:33AM 35.2639 -80.8758 47° Northeast 228 262 3,600 2,160 Climbing FAA TRACON SMA TRACON (SMA)
06:34AM 35.2825 -80.8669 21° North 236 272 4,500 2,460 Climbing FAA TRACON SMA TRACON (SMA)
06:34AM 35.3036 -80.8678 358° North 250 288 5,200 3,300 Climbing FAA TRACON SMA TRACON (SMA)
06:34AM 35.3303 -80.8689 358° North 248 285 6,700 3,180 Climbing FAA TRACON SMA TRACON (SMA)
06:35AM 35.3561 -80.8703 357° North 242 278 7,500 1,500 Climbing FAA TRACON SMA TRACON (SMA)
06:35AM 35.3775 -80.8714 358° North 247 284 7,800 780 Climbing FAA TRACON SMA TRACON (SMA)
06:35AM 35.3994 -80.8725 358° North 253 291 8,000 300 Climbing FAA TRACON SMA TRACON (SMA)
06:36AM 35.4222 -80.8736 358° North 262 302 8,000 240 Level FAA TRACON SMA TRACON (SMA)
06:36AM 35.4456 -80.8750 357° North 266 306 8,200 1,620 Climbing FAA TRACON SMA TRACON (SMA)
06:36AM 35.4744 -80.8758 359° North 270 311 9,100 2,520 Climbing FAA TRACON SMA TRACON (SMA)
06:37AM 35.4983 -80.8775 357° North 276 318 9,900 2,520 Climbing FAA TRACON SMA TRACON (SMA)
06:37AM 35.5222 -80.8786 358° North 280 322 10,800 2,520 Climbing FAA TRACON SMA TRACON (SMA)
06:37AM 35.5528 -80.8800 358° North 284 327 11,600 1,860 Climbing FAA TRACON SMA TRACON (SMA)
06:38AM 35.5783 -80.8814 357° North 292 336 12,100 1,680 Climbing FAA TRACON SMA TRACON (SMA)
06:38AM 35.6050 -80.8825 358° North 303 349 12,700 1,800 Climbing FAA TRACON SMA TRACON (SMA)
06:38AM 35.6397 -80.8842 358° North 320 368 13,300 1,620 Climbing FAA TRACON SMA TRACON (SMA)
06:39AM 35.6686 -80.8864 356° North 334 384 13,800 1,500 Climbing FAA TRACON SMA TRACON (SMA)
06:39AM 35.6978 -80.8919 351° North 343 395 14,300 1,740 Climbing FAA TRACON SMA TRACON (SMA)
06:39AM 35.7333 -80.9028 346° North 344 396 15,000 1,980 Climbing FAA TRACON SMA TRACON (SMA)
06:40AM 35.7622 -80.9119 346° North 348 400 15,600 1,800 Climbing FAA TRACON SMA TRACON (SMA)
06:40AM 35.7908 -80.9217 345° North 348 400 16,200 1,800 Climbing FAA TRACON SMA TRACON (SMA)
06:40AM 35.8269 -80.9333 345° North 349 402 16,800 1,500 Climbing FAA TRACON SMA TRACON (SMA)
06:41AM 35.8567 -80.9425 346° North 353 406 17,200 1,140 Climbing FAA TRACON SMA TRACON (SMA)
06:41AM 35.8864 -80.9528 344° North 358 412 17,600 1,500 Climbing FAA TRACON SMA TRACON (SMA)
06:41AM 35.9242 -80.9642 346° North 360 414 18,200 1,920 Climbing FAA TRACON SMA TRACON (SMA)
06:42AM 35.9539 -80.9744 344° North 359 413 18,900 1,920 Climbing FAA TRACON SMA TRACON (SMA)
06:42AM 35.9833 -80.9833 346° North 356 410 19,500 2,100 Climbing FAA TRACON SMA TRACON (SMA)
06:42AM 36.0194 -80.9944 346° North 353 406 20,300 2,160 Climbing FAA TRACON SMA TRACON (SMA)
06:43AM 36.0483 -81.0039 345° North 351 404 21,000 1,980 Climbing FAA TRACON SMA TRACON (SMA)
06:43AM 36.0747 -81.0114 347° North 349 402 21,600 1,200 Climbing FAA TRACON SMA TRACON (SMA)
06:43AM 36.0842 -81.0164 337° Northwest 348 400 21,800 240 Climbing FAA TRACON SMA TRACON (SMA)
06:44AM 36.0842 -81.0164 165° South 348 400 21,800 2,760 Level FAA TRACON SMA TRACON (SMA)
06:44AM 36.2161 -81.0586 346° North 346 398 24,900 2,820 Climbing Atlanta Center
06:45AM 36.3064 -81.0861 346° North 341 392 26,900 1,980 Climbing Atlanta Center
06:46AM 36.3925 -81.1139 345° North 324 373 29,000 1,860 Climbing Atlanta Center
06:47AM 36.4744 -81.1419 345° North 318 366 30,700 1,260 Climbing Atlanta Center
06:48AM 36.5606 -81.1672 347° North 312 359 31,600 600 Climbing Atlanta Center
06:49AM 36.6406 -81.1956 344° North 317 365 32,000 120 Climbing Atlanta Center
06:51AM 36.8178 -81.2547 345° North 392 451 32,000  Level Indianapolis Center
06:52AM 36.9233 -81.2906 345° North 402 463 32,000  Level Indianapolis Center
06:53AM 37.0350 -81.3272 345° North 396 456 32,000  Level Indianapolis Center
06:54AM 37.1467 -81.3636 345° North 407 468 32,000  Level Indianapolis Center
06:55AM 37.2558 -81.3997 345° North 406 467 32,000  Level Indianapolis Center
06:56AM 37.3706 -81.4383 345° North 406 467 32,000  Level Indianapolis Center
06:57AM 37.4772 -81.4736 345° North 405 466 32,000  Level Indianapolis Center
06:58AM 37.5844 -81.5103 345° North 409 471 32,000  Level Indianapolis Center
06:59AM 37.6939 -81.5472 345° North 407 468 32,000  Level Indianapolis Center
07:00AM 37.8039 -81.5842 345° North 410 472 32,000  Level Indianapolis Center
07:01AM 37.9086 -81.6208 345° North 413 475 32,000  Level Indianapolis Center
07:02AM 38.0192 -81.6561 346° North 409 471 32,000  Level Indianapolis Center
07:03AM 38.1294 -81.6947 345° North 411 473 32,000  Level Indianapolis Center
07:04AM 38.2619 -81.7397 345° North 408 470 32,000  Level Indianapolis Center
07:05AM 38.3750 -81.7747 346° North 414 476 32,000  Level Indianapolis Center
07:06AM 38.4903 -81.7947 352° North 415 478 32,000  Level Indianapolis Center
07:07AM 38.6075 -81.8139 353° North 417 480 32,000  Level Indianapolis Center
07:08AM 38.7250 -81.8328 353° North 417 480 32,000  Level Indianapolis Center
07:09AM 38.8419 -81.8508 353° North 416 479 32,000  Level Indianapolis Center
07:10AM 38.9583 -81.8714 352° North 417 480 32,000  Level Indianapolis Center
07:11AM 39.0761 -81.8908 353° North 422 486 32,000  Level Indianapolis Center
07:12AM 39.1925 -81.9103 353° North 420 483 32,000 -480 Level Indianapolis Center
07:13AM 39.3117 -81.9292 353° North 427 491 31,100 -1,380 Descending Indianapolis Center
07:14AM 39.4297 -81.9503 352° North 428 493 29,200 -1,920 Descending Indianapolis Center
07:15AM 39.5531 -81.9717 352° North 442 509 27,200 -1,920 Descending Indianapolis Center
07:16AM 39.6750 -81.9911 353° North 441 507 25,300 -1,620 Descending Indianapolis Center
07:17AM 39.7961 -82.0128 352° North 434 499 24,000 -1,020 Descending Indianapolis Center
07:18AM 39.9142 -82.0317 353° North 427 491 23,300 -840 Descending Indianapolis Center
07:19AM 40.0342 -82.0539 352° North 433 498 22,300 -1,020 Descending Indianapolis Center
07:20AM 40.1525 -82.0731 353° North 427 491 21,300 -1,020 Descending Indianapolis Center
07:22AM 40.2725 -82.0950 352° North 416 479 20,300 -1,020 Descending Indianapolis Center
07:23AM 40.3869 -82.1136 353° North 411 473 19,300 -1,080 Descending Indianapolis Center
07:23AM 40.4675 -82.1114 North 410 472 18,600 -1,620 Descending Cleveland Center
07:24AM 40.5625 -82.0233 35° Northeast 388 447 16,800 -1,920 Descending Cleveland Center
07:25AM 40.6511 -81.9350 37° Northeast 388 447 14,800 -2,040 Descending Cleveland Center
07:26AM 40.7397 -81.8464 37° Northeast 388 447 12,800 -1,980 Descending Cleveland Center
07:27AM 40.7881 -81.8008 36° Northeast 392 451 11,600 -1,920 Descending Cleveland Center
07:27AM 40.8239 -81.7631 39° Northeast 394 453 10,900 -1,500 Descending Cleveland Center
07:28AM 40.8744 -81.7117 38° Northeast 389 448 10,100 -900 Descending Cleveland Center
07:28AM 40.9103 -81.6767 36° Northeast 389 448 10,000 -120 Descending Cleveland Center
07:29AM 40.9650 -81.6308 32° Northeast 369 425 10,000  Level Cleveland Center
07:29AM 41.0006 -81.6258 North 351 404 10,000  Level Cleveland Center
07:30AM 41.0708 -81.6656 337° Northwest 363 418 10,000  Level Cleveland Center
07:30AM 41.0958 -81.6742 345° North 341 392 10,000  Level Cleveland Center
07:31AM 41.1519 -81.7000 341° North 327 376 10,000 -240 Level Cleveland Center
07:31AM 41.1706 -81.7086 341° North 336 387 9,800 -1,500 Descending Cleveland Center
07:32AM 41.2267 -81.7400 337° Northwest 270 311 8,500 -1,740 Descending Cleveland Center
07:32AM 41.2453 -81.7458 347° North 301 346 8,100 -1,740 Descending Cleveland Center
07:33AM 41.3036 -81.7578 351° North 274 315 6,600 -1,980 Descending Cleveland Center
07:34AM 41.3725 -81.7314 16° North 276 318 4,800 -1,920 Descending Cleveland Center
07:34AM 41.3978 -81.7236 13° North 260 299 4,300 -1,680 Descending Cleveland Center
07:35AM 41.4375 -81.7106 14° North 253 291 3,300 -1,320 Descending Cleveland Center
07:35AM 41.4686 -81.7111 359° North 260 299 3,000 -480 Descending Cleveland Center
07:36AM 41.4872 -81.7444 307° West 235 270 2,900 -600 Descending Cleveland Center
07:36AM 41.4722 -81.7692 231° Southwest 169 194 2,400 -900 Descending Cleveland Center
07:37AM 41.4556 -81.7856 216° Southwest 122 140 2,000 -660 Descending Cleveland Center
07:38AM 41.4322 -81.8211 229° Southwest 131 151 1,400 -600 Descending Cleveland Center